Time;durP1;ratioP1;P1;durP2;ratioP2;P2;SDS_P1;SDS_P2;PMS_P1;PMS_P2;Temp;Humidity;BMP_temperature;BMP_pressure;BME280_temperature;BME280_humidity;BME280_pressure;Samples;Min_cycle;Max_cycle;Signal;HPM_P1;HPM_P2
2023/04/23 00:00:40;;;;;;;5.97;2.40;;;;;;;14.03;73.17;99979.13;4139031;28;20085;-66
2023/04/23 00:02:45;;;;;;;5.07;2.63;;;;;;;14.05;72.72;99973.88;4156337;28;20263;-66
2023/04/23 00:04:51;;;;;;;6.45;2.47;;;;;;;14.14;73.08;99972.03;4164080;28;20056;-66
2023/04/23 00:06:55;;;;;;;3.40;1.92;;;;;;;14.06;73.65;99978.19;4155712;28;20484;-66
2023/04/23 00:09:00;;;;;;;3.92;2.38;;;;;;;14.06;73.47;99976.47;4141041;28;20042;-66
2023/04/23 00:11:03;;;;;;;4.53;2.30;;;;;;;14.11;73.32;99974.69;4161862;28;20068;-66
2023/04/23 00:13:07;;;;;;;4.43;2.50;;;;;;;14.08;73.42;99982.53;4144805;28;20053;-66
2023/04/23 00:15:13;;;;;;;6.80;2.50;;;;;;;14.08;73.35;99979.06;4137988;28;20119;-66
2023/04/23 00:17:16;;;;;;;5.07;2.47;;;;;;;14.16;72.87;99979.00;4157337;28;20402;-66
2023/04/23 00:19:19;;;;;;;3.60;2.10;;;;;;;14.17;72.81;99984.22;4162428;28;20052;-66
2023/04/23 00:21:23;;;;;;;5.72;2.25;;;;;;;14.18;72.65;99982.47;4143025;28;20054;-66
2023/04/23 00:23:26;;;;;;;4.97;2.50;;;;;;;14.24;73.52;99988.53;4142911;28;20076;-66
2023/04/23 00:25:28;;;;;;;4.65;2.40;;;;;;;14.23;72.99;99984.16;4162795;28;20099;-66
2023/04/23 00:27:31;;;;;;;5.28;2.40;;;;;;;14.28;73.19;99985.00;4157340;28;20041;-66
2023/04/23 00:29:34;;;;;;;7.03;3.83;;;;;;;14.30;73.67;99987.59;4133168;28;20026;-66
2023/04/23 00:31:38;;;;;;;5.53;2.80;;;;;;;14.29;73.72;99981.53;4158474;28;20096;-66
2023/04/23 00:33:41;;;;;;;3.58;2.35;;;;;;;14.27;74.56;99978.03;4149739;28;20040;-66
2023/04/23 00:35:45;;;;;;;6.60;2.80;;;;;;;14.29;73.97;99984.13;4129596;28;20077;-66
2023/04/23 00:37:48;;;;;;;5.88;3.10;;;;;;;14.34;74.21;99985.81;4143877;28;20038;-66
2023/04/23 00:39:50;;;;;;;4.15;2.60;;;;;;;14.36;74.07;99987.53;4145383;28;20033;-66
2023/04/23 00:41:53;;;;;;;4.97;2.70;;;;;;;14.31;73.99;99986.72;4139802;28;20041;-66
2023/04/23 00:43:57;;;;;;;6.35;2.97;;;;;;;14.34;74.45;99988.44;4126018;28;20042;-66
2023/04/23 00:46:00;;;;;;;4.82;2.72;;;;;;;14.35;74.64;99992.78;4134699;28;20130;-66
2023/04/23 00:48:05;;;;;;;5.55;2.90;;;;;;;14.30;74.14;99991.06;4117029;28;20171;-66
2023/04/23 00:50:08;;;;;;;7.85;2.60;;;;;;;14.32;73.80;99989.34;4147340;28;20042;-66
2023/04/23 00:52:12;;;;;;;5.60;3.38;;;;;;;14.30;74.70;99988.47;4135364;28;20038;-66
2023/04/23 00:54:15;;;;;;;5.07;3.08;;;;;;;14.30;74.93;99983.22;4146280;28;20048;-66
2023/04/23 00:56:18;;;;;;;3.67;2.38;;;;;;;14.31;74.42;99981.50;4156362;28;20500;-66
2023/04/23 00:58:21;;;;;;;5.72;2.90;;;;;;;14.28;75.17;99982.38;4135138;28;20053;-66
2023/04/23 01:00:25;;;;;;;4.25;2.75;;;;;;;14.27;75.27;99985.03;4137494;28;20443;-66
2023/04/23 01:02:30;;;;;;;6.20;3.17;;;;;;;14.24;74.93;99983.28;4147134;28;20048;-66
2023/04/23 01:04:37;;;;;;;5.53;3.08;;;;;;;14.24;75.74;99988.53;4132701;28;20038;-66
2023/04/23 01:06:41;;;;;;;4.75;2.72;;;;;;;14.26;75.29;99986.75;4138892;28;20046;-65
2023/04/23 01:08:45;;;;;;;4.28;2.55;;;;;;;14.26;75.88;99983.28;4129443;28;20064;-66
2023/04/23 01:10:49;;;;;;;4.88;3.28;;;;;;;14.29;75.48;99983.25;4145232;28;20038;-66
2023/04/23 01:12:53;;;;;;;5.05;2.75;;;;;;;14.32;74.78;99985.84;4160497;28;20083;-67
2023/04/23 01:14:56;;;;;;;4.10;2.93;;;;;;;14.27;74.80;99987.63;4162435;28;20041;-66
2023/04/23 01:16:59;;;;;;;3.65;2.85;;;;;;;14.30;74.99;99996.31;4136256;28;20039;-66
2023/04/23 01:19:02;;;;;;;4.93;2.55;;;;;;;14.26;75.11;99986.75;4144028;28;20118;-66
2023/04/23 01:21:08;;;;;;;5.55;2.90;;;;;;;14.26;74.54;99991.97;4143607;28;20037;-65
2023/04/23 01:23:12;;;;;;;5.72;3.30;;;;;;;14.25;75.14;99995.50;4149423;28;20065;-66
2023/04/23 01:25:35;;;;;;;7.75;3.65;;;;;;;14.33;75.17;99992.81;4156127;28;20550;-66
2023/04/23 01:27:38;;;;;;;4.97;2.83;;;;;;;14.30;74.45;99998.06;4159062;28;20037;-66
2023/04/23 01:29:41;;;;;;;7.68;3.38;;;;;;;14.27;75.10;99998.09;4161944;28;20413;-66
2023/04/23 01:31:45;;;;;;;4.47;2.85;;;;;;;14.23;75.09;99996.38;4150813;28;20084;-66
2023/04/23 01:33:49;;;;;;;5.43;3.10;;;;;;;14.22;74.85;99992.03;4144989;28;20435;-66
2023/04/23 01:35:54;;;;;;;4.85;3.10;;;;;;;14.14;74.77;99995.56;4132798;28;20073;-66
2023/04/23 01:37:59;;;;;;;6.30;3.72;;;;;;;14.16;75.45;100000.78;4141164;28;20040;-66
2023/04/23 01:40:04;;;;;;;4.60;2.92;;;;;;;14.08;75.01;100002.59;4147274;28;20045;-66
2023/04/23 01:42:07;;;;;;;5.32;3.45;;;;;;;14.08;75.65;100008.69;4142015;28;20820;-66
2023/04/23 01:44:10;;;;;;;4.05;2.97;;;;;;;14.05;75.89;100002.63;4134755;28;20093;-66
2023/04/23 01:46:13;;;;;;;5.93;3.60;;;;;;;13.89;75.71;99996.66;4151050;28;20101;-66
2023/04/23 01:48:17;;;;;;;6.72;3.53;;;;;;;13.87;75.62;99996.66;4155731;28;20130;-66
2023/04/23 01:50:22;;;;;;;7.25;3.80;;;;;;;13.86;76.02;99996.66;4161676;28;20061;-66
2023/04/23 01:52:25;;;;;;;5.55;3.25;;;;;;;13.94;75.38;100000.06;4162280;28;20069;-66
2023/04/23 01:54:27;;;;;;;6.20;3.38;;;;;;;14.01;75.58;100003.53;4153513;28;20112;-66
2023/04/23 01:56:33;;;;;;;5.82;3.78;;;;;;;14.03;75.17;100001.75;4141949;28;20045;-66
2023/04/23 01:58:36;;;;;;;7.45;3.75;;;;;;;14.02;75.53;100003.50;4121612;28;20034;-66
2023/04/23 02:00:40;;;;;;;2.83;2.50;;;;;;;13.99;75.66;100014.00;4144122;28;20041;-66
2023/04/23 02:02:44;;;;;;;4.65;3.28;;;;;;;14.00;75.09;100020.06;4138837;28;20046;-66
2023/04/23 02:04:48;;;;;;;6.90;3.75;;;;;;;13.92;76.15;100018.38;4130767;28;20042;-66
2023/04/23 02:06:51;;;;;;;8.65;3.25;;;;;;;13.94;75.43;100016.66;4135785;28;20030;-66
2023/04/23 02:08:54;;;;;;;5.40;3.45;;;;;;;13.98;76.24;100016.63;4148289;28;20033;-66
2023/04/23 02:10:57;;;;;;;5.07;3.25;;;;;;;13.95;75.46;100022.72;4123778;28;20038;-66
2023/04/23 02:13:02;;;;;;;5.20;3.13;;;;;;;13.85;75.75;100014.06;4129480;28;20047;-66
2023/04/23 02:15:08;;;;;;;4.07;3.00;;;;;;;13.83;76.00;100023.69;4144055;28;20056;-66
2023/04/23 02:17:11;;;;;;;5.03;3.10;;;;;;;13.80;75.66;100028.94;4123260;28;20043;-66
2023/04/23 02:19:15;;;;;;;4.85;3.28;;;;;;;13.83;75.63;100026.28;4138905;28;20042;-66
2023/04/23 02:21:18;;;;;;;4.32;2.90;;;;;;;13.83;75.55;100023.69;4160325;28;20476;-66
2023/04/23 02:23:21;;;;;;;6.00;2.80;;;;;;;13.74;75.81;100028.94;4143139;28;20049;-66
2023/04/23 02:25:24;;;;;;;6.95;2.95;;;;;;;13.71;76.43;100023.72;4161461;28;20068;-66
2023/04/23 02:27:27;;;;;;;5.20;3.13;;;;;;;13.60;76.05;100029.88;4160781;28;20100;-66
2023/04/23 02:29:31;;;;;;;7.18;3.00;;;;;;;13.64;76.21;100027.25;4161193;28;20116;-66
2023/04/23 02:31:34;;;;;;;4.35;2.97;;;;;;;13.60;76.32;100016.81;4144095;28;20033;-66
2023/04/23 02:33:37;;;;;;;5.75;3.28;;;;;;;13.69;76.13;100020.28;4143349;28;20037;-66
2023/04/23 02:35:39;;;;;;;5.63;3.50;;;;;;;13.69;76.32;100023.75;4143895;28;20459;-66
2023/04/23 02:37:42;;;;;;;4.55;2.72;;;;;;;13.58;76.59;100023.81;4135993;28;20125;-66
2023/04/23 02:39:45;;;;;;;4.90;2.88;;;;;;;13.62;76.85;100016.81;4144950;28;20034;-66
2023/04/23 02:41:48;;;;;;;6.45;3.47;;;;;;;13.59;77.14;100020.34;4162321;28;20439;-66
2023/04/23 02:43:51;;;;;;;3.78;2.90;;;;;;;13.63;77.28;100020.31;4143200;28;20109;-66
2023/04/23 02:45:55;;;;;;;5.63;3.47;;;;;;;13.69;76.83;100009.81;4130246;28;20038;-66
2023/04/23 02:47:58;;;;;;;6.60;3.47;;;;;;;13.71;77.10;100019.41;4134954;28;20037;-66
2023/04/23 02:50:04;;;;;;;7.07;3.53;;;;;;;13.57;77.12;100026.44;4127031;28;21271;-66
2023/04/23 02:52:08;;;;;;;6.43;3.35;;;;;;;13.54;77.46;100022.09;4142985;28;20046;-66
2023/04/23 02:54:11;;;;;;;8.98;4.13;;;;;;;13.60;77.00;100010.75;4148004;28;20046;-66
2023/04/23 02:56:14;;;;;;;7.15;3.10;;;;;;;13.64;77.26;100014.19;4136544;28;20125;-66
2023/04/23 02:58:17;;;;;;;8.25;3.22;;;;;;;13.69;76.47;100009.81;4144760;28;20142;-66
2023/04/23 03:00:23;;;;;;;4.40;2.95;;;;;;;13.68;77.35;100010.69;4160300;28;20474;-66
2023/04/23 03:02:28;;;;;;;4.65;3.47;;;;;;;13.72;77.15;100009.81;4143498;28;20124;-66
2023/04/23 03:04:30;;;;;;;6.63;3.70;;;;;;;13.75;76.54;100004.56;4143692;28;20084;-66
2023/04/23 03:06:34;;;;;;;5.72;4.03;;;;;;;13.67;77.13;100004.63;4124639;28;20046;-66
2023/04/23 03:08:37;;;;;;;7.40;3.67;;;;;;;13.63;77.01;100017.69;4144581;28;20046;-66
2023/04/23 03:10:40;;;;;;;5.38;3.40;;;;;;;13.58;77.22;100010.75;4148064;28;20057;-66
2023/04/23 03:12:43;;;;;;;6.88;3.67;;;;;;;13.59;77.34;100007.28;4154435;28;20104;-66
2023/04/23 03:14:45;;;;;;;4.93;3.25;;;;;;;13.52;77.34;100008.19;4118593;28;20097;-65
2023/04/23 03:16:48;;;;;;;4.88;3.28;;;;;;;13.52;77.53;100013.41;4142809;28;20042;-66
2023/04/23 03:18:53;;;;;;;5.55;3.58;;;;;;;13.58;76.60;100009.88;4146172;28;20038;-65
2023/04/23 03:20:56;;;;;;;8.38;3.65;;;;;;;13.63;76.88;100004.66;4147036;28;20499;-65
2023/04/23 03:22:59;;;;;;;5.65;3.80;;;;;;;13.63;77.45;100012.47;4146073;28;20517;-65
2023/04/23 03:25:02;;;;;;;5.38;3.72;;;;;;;13.68;76.50;100011.59;4139515;28;20050;-65
2023/04/23 03:27:05;;;;;;;4.40;3.15;;;;;;;13.45;77.11;100019.53;4163498;28;20037;-65
2023/04/23 03:29:09;;;;;;;4.45;3.08;;;;;;;13.28;77.44;100020.41;4138697;28;20092;-65
2023/04/23 03:31:12;;;;;;;4.25;3.17;;;;;;;13.24;77.35;100023.94;4164127;28;20563;-65
2023/04/23 03:33:15;;;;;;;5.47;3.15;;;;;;;13.09;77.82;100026.59;4141631;28;20050;-65
2023/04/23 03:35:19;;;;;;;6.38;3.80;;;;;;;13.14;77.58;100024.84;4146416;28;20535;-65
2023/04/23 03:37:23;;;;;;;7.47;3.70;;;;;;;13.25;77.58;100024.78;4146719;28;20068;-65
2023/04/23 03:39:26;;;;;;;6.63;3.85;;;;;;;13.24;77.49;100023.06;4163859;28;20041;-65
2023/04/23 03:41:30;;;;;;;4.25;3.40;;;;;;;13.33;77.30;100027.38;4146493;28;20033;-66
2023/04/23 03:43:33;;;;;;;4.78;3.25;;;;;;;13.25;76.92;100023.03;4146965;28;20121;-65
2023/04/23 03:45:38;;;;;;;3.65;2.60;;;;;;;13.12;76.95;100018.75;4164697;28;20542;-65
2023/04/23 03:47:41;;;;;;;5.05;2.88;;;;;;;13.13;76.90;100015.28;4131455;28;20042;-66
2023/04/23 03:49:45;;;;;;;3.30;2.72;;;;;;;13.05;76.70;100014.41;4137092;28;20121;-65
2023/04/23 03:51:49;;;;;;;4.72;3.35;;;;;;;12.99;77.04;100015.31;4146438;28;20459;-65
2023/04/23 03:53:53;;;;;;;3.90;2.95;;;;;;;12.94;76.67;100017.06;4145450;28;20038;-65
2023/04/23 03:56:10;;;;;;;3.08;2.38;;;;;;;12.84;77.24;100021.44;4157405;28;20063;-65
2023/04/23 03:58:22;;;;;;;2.97;2.67;;;;;;;12.87;77.14;100018.81;4153394;28;20038;-66
2023/04/23 04:00:25;;;;;;;4.97;2.75;;;;;;;12.84;76.75;100015.34;4138335;28;20427;-65
2023/04/23 04:02:28;;;;;;;3.55;2.47;;;;;;;12.89;77.52;100024.91;4135149;28;20056;-66
2023/04/23 04:04:31;;;;;;;6.65;3.45;;;;;;;12.98;77.89;100030.97;4132744;28;20049;-66
2023/04/23 04:06:36;;;;;;;3.72;2.20;;;;;;;12.92;77.13;100031.84;4156019;28;20046;-66
2023/04/23 04:08:40;;;;;;;4.95;2.90;;;;;;;12.95;77.13;100030.97;4163874;28;20045;-65
2023/04/23 04:10:43;;;;;;;2.83;2.45;;;;;;;12.95;77.08;100037.06;4162522;28;20029;-65
2023/04/23 04:12:46;;;;;;;3.75;2.38;;;;;;;12.93;76.69;100037.06;4124431;28;20130;-66
2023/04/23 04:14:50;;;;;;;6.05;2.65;;;;;;;12.97;76.79;100037.06;4141951;28;20462;-66
2023/04/23 04:16:53;;;;;;;4.97;2.58;;;;;;;12.87;76.52;100029.25;4163285;28;20034;-66
2023/04/23 04:18:56;;;;;;;2.90;2.00;;;;;;;12.88;76.42;100041.44;4163271;28;20045;-66
2023/04/23 04:20:59;;;;;;;2.72;2.17;;;;;;;12.93;76.24;100038.81;4161367;28;20037;-65
2023/04/23 04:23:02;;;;;;;4.85;1.98;;;;;;;12.97;76.43;100042.28;4161621;28;20773;-65
2023/04/23 04:25:07;;;;;;;2.92;2.30;;;;;;;13.02;75.91;100037.91;4158606;28;20033;-65
2023/04/23 04:27:10;;;;;;;3.65;2.20;;;;;;;13.07;75.51;100049.22;4154849;28;20511;-65
2023/04/23 04:29:13;;;;;;;3.33;2.40;;;;;;;13.06;75.57;100034.44;4163321;28;20132;-65
2023/04/23 04:31:16;;;;;;;3.60;2.20;;;;;;;13.09;75.78;100035.28;4163354;28;20040;-65
2023/04/23 04:33:19;;;;;;;2.60;1.92;;;;;;;13.06;75.88;100035.28;4157481;28;20033;-66
2023/04/23 04:35:22;;;;;;;4.45;2.47;;;;;;;13.11;75.81;100032.66;4159145;28;20033;-65
2023/04/23 04:37:26;;;;;;;3.63;2.53;;;;;;;13.13;75.52;100022.22;4150858;28;20037;-65
2023/04/23 04:39:29;;;;;;;4.32;2.42;;;;;;;13.11;75.51;100024.81;4132733;28;20137;-66
2023/04/23 04:41:34;;;;;;;3.92;2.22;;;;;;;13.14;75.59;100024.84;4149120;28;20483;-66
2023/04/23 04:43:36;;;;;;;2.70;2.22;;;;;;;13.01;75.50;100036.16;4147134;28;20037;-65
2023/04/23 04:45:39;;;;;;;4.25;2.45;;;;;;;12.93;75.90;100039.66;4145932;28;20475;-66
2023/04/23 04:47:42;;;;;;;4.30;2.35;;;;;;;12.97;75.29;100037.06;4154984;28;20044;-65
2023/04/23 04:49:45;;;;;;;2.95;2.30;;;;;;;12.88;76.08;100036.22;4149407;28;20058;-65
2023/04/23 04:51:48;;;;;;;5.13;2.92;;;;;;;12.96;76.01;100032.72;4138113;28;20026;-66
2023/04/23 04:53:51;;;;;;;3.72;2.40;;;;;;;13.04;75.98;100037.03;4140359;28;20065;-64
2023/04/23 04:55:54;;;;;;;2.92;1.85;;;;;;;13.10;75.76;100039.63;4145347;28;20053;-64
2023/04/23 04:58:09;;;;;;;2.97;2.58;;;;;;;13.13;76.15;100046.59;4149588;28;20073;-65
2023/04/23 05:00:26;;;;;;;6.03;2.90;;;;;;;13.20;75.53;100035.25;4136130;28;20042;-64
2023/04/23 05:02:29;;;;;;;3.42;2.42;;;;;;;13.08;75.72;100030.06;4118972;28;20065;-64
2023/04/23 05:04:33;;;;;;;3.65;2.63;;;;;;;13.08;76.19;100037.88;4115532;28;20404;-62
2023/04/23 05:06:35;;;;;;;4.03;2.47;;;;;;;13.12;76.16;100037.00;4128420;28;20038;-64
2023/04/23 05:08:38;;;;;;;3.17;2.22;;;;;;;13.14;75.98;100048.34;4127120;28;20585;-64
2023/04/23 05:10:41;;;;;;;3.28;2.75;;;;;;;13.16;75.77;100049.19;4109256;28;20046;-65
2023/04/23 05:12:44;;;;;;;3.80;2.38;;;;;;;13.18;75.92;100052.66;4108922;28;20065;-65
2023/04/23 05:14:47;;;;;;;3.30;2.50;;;;;;;13.17;76.00;100045.72;4114857;28;20043;-65
2023/04/23 05:16:51;;;;;;;4.22;3.20;;;;;;;13.24;76.15;100041.31;4115262;28;20126;-65
2023/04/23 05:18:54;;;;;;;3.45;2.47;;;;;;;13.20;76.40;100040.47;4114481;28;20330;-65
2023/04/23 05:20:57;;;;;;;4.03;2.70;;;;;;;13.23;76.01;100042.22;4129298;28;20054;-65
2023/04/23 05:23:01;;;;;;;3.05;2.72;;;;;;;13.20;76.60;100039.59;4114961;28;20047;-65
2023/04/23 05:25:04;;;;;;;3.40;2.70;;;;;;;13.19;76.61;100056.16;4115321;28;20460;-62
2023/04/23 05:27:07;;;;;;;5.25;2.97;;;;;;;13.23;76.51;100050.06;4115098;28;20047;-65
2023/04/23 05:29:13;;;;;;;4.55;2.97;;;;;;;13.30;76.49;100043.03;4113922;28;20154;-65
2023/04/23 05:31:15;;;;;;;4.25;2.70;;;;;;;13.34;76.32;100044.78;4130825;28;20102;-65
2023/04/23 05:33:20;;;;;;;3.38;2.50;;;;;;;13.27;76.58;100042.19;4115144;28;20039;-65
2023/04/23 05:35:22;;;;;;;3.28;2.85;;;;;;;13.12;76.79;100044.84;4115854;28;20098;-64
2023/04/23 05:37:26;;;;;;;4.65;2.90;;;;;;;13.18;76.66;100044.81;4115771;28;20034;-65
2023/04/23 05:39:28;;;;;;;4.47;3.20;;;;;;;13.20;76.53;100032.66;4115650;28;20049;-65
2023/04/23 05:41:31;;;;;;;5.53;3.58;;;;;;;13.24;76.62;100047.44;4114168;28;20042;-65
2023/04/23 05:43:34;;;;;;;6.00;3.45;;;;;;;13.37;75.77;100039.56;4113026;28;20053;-65
2023/04/23 05:45:37;;;;;;;4.47;2.83;;;;;;;13.33;75.75;100041.31;4114717;28;20065;-64
2023/04/23 05:47:40;;;;;;;8.32;3.45;;;;;;;13.40;75.81;100037.84;4115705;28;20039;-65
2023/04/23 05:49:44;;;;;;;4.65;2.28;;;;;;;13.43;75.00;100031.72;4115302;28;20412;-65
2023/04/23 05:51:47;;;;;;;4.15;3.10;;;;;;;13.43;75.73;100036.94;4113559;28;20066;-65
2023/04/23 05:53:49;;;;;;;6.03;3.22;;;;;;;13.41;75.97;100042.16;4099139;28;20043;-65
2023/04/23 05:55:52;;;;;;;4.28;2.88;;;;;;;13.40;76.30;100035.22;4099511;28;20043;-64
2023/04/23 05:57:55;;;;;;;3.47;2.67;;;;;;;13.38;76.62;100036.97;4099655;28;20545;-65
2023/04/23 05:59:58;;;;;;;2.92;2.58;;;;;;;13.42;76.57;100037.81;4099530;28;20072;-65
2023/04/23 06:02:01;;;;;;;5.38;2.63;;;;;;;13.44;76.64;100041.28;4104950;28;20086;-64
2023/04/23 06:04:04;;;;;;;4.45;2.95;;;;;;;13.50;76.29;100033.41;4109643;28;20054;-65
2023/04/23 06:06:08;;;;;;;3.60;2.63;;;;;;;13.45;76.79;100043.03;4113935;28;20074;-65
2023/04/23 06:08:11;;;;;;;5.32;2.83;;;;;;;13.43;76.57;100042.16;4115523;28;20042;-65
2023/04/23 06:10:14;;;;;;;5.25;3.10;;;;;;;13.30;76.23;100040.44;4130177;28;20034;-65
2023/04/23 06:12:17;;;;;;;5.95;2.95;;;;;;;13.25;76.72;100037.84;4113494;28;20113;-65
2023/04/23 06:14:20;;;;;;;2.33;2.13;;;;;;;13.30;76.53;100045.66;4115722;28;20291;-65
2023/04/23 06:16:23;;;;;;;4.40;2.78;;;;;;;13.30;76.58;100046.50;4115607;28;20043;-65
2023/04/23 06:18:27;;;;;;;4.93;3.00;;;;;;;13.36;76.21;100046.56;4114088;28;20508;-65
2023/04/23 06:20:30;;;;;;;3.95;2.60;;;;;;;13.43;76.15;100047.38;4128309;28;20500;-64
2023/04/23 06:22:34;;;;;;;3.13;2.60;;;;;;;13.34;75.89;100044.78;4114621;28;20452;-65
2023/04/23 06:24:37;;;;;;;8.07;3.33;;;;;;;13.37;76.20;100042.19;4114133;28;20051;-65
2023/04/23 06:26:40;;;;;;;4.63;2.58;;;;;;;13.42;75.75;100037.81;4115146;28;20052;-65
2023/04/23 06:28:49;;;;;;;4.70;2.63;;;;;;;13.45;76.22;100037.81;4130176;28;20054;-65
2023/04/23 06:31:13;;;;;;;4.82;2.70;;;;;;;13.64;75.15;100037.69;4130018;28;20065;-65
2023/04/23 06:33:16;;;;;;;5.40;3.03;;;;;;;13.73;75.20;100029.84;4129498;28;20039;-65
2023/04/23 06:35:19;;;;;;;4.55;2.95;;;;;;;13.90;74.68;100032.31;4113825;28;20035;-65
2023/04/23 06:37:22;;;;;;;6.03;3.55;;;;;;;14.02;74.39;100026.16;4110220;28;20034;-65
2023/04/23 06:39:26;;;;;;;3.22;2.75;;;;;;;13.92;74.33;100022.75;4114993;28;20063;-65
2023/04/23 06:41:29;;;;;;;4.20;2.63;;;;;;;14.02;74.45;100023.53;4117905;28;20445;-65
2023/04/23 06:43:44;;;;;;;4.07;2.30;;;;;;;13.93;74.38;100025.34;4132575;28;20042;-65
2023/04/23 06:45:56;;;;;;;3.97;2.90;;;;;;;14.04;74.17;100014.81;4130885;28;20052;-65
2023/04/23 06:47:59;;;;;;;5.88;2.70;;;;;;;14.08;73.78;100013.91;4118112;28;20102;-65
2023/04/23 06:50:01;;;;;;;4.72;2.85;;;;;;;14.14;74.09;100021.72;4118273;28;20093;-65
2023/04/23 06:52:04;;;;;;;3.58;2.72;;;;;;;14.24;72.80;100024.28;4116788;28;20126;-64
2023/04/23 06:54:07;;;;;;;4.72;2.25;;;;;;;14.34;72.77;100025.94;4115206;28;20042;-64
2023/04/23 06:56:11;;;;;;;4.18;2.70;;;;;;;14.31;71.31;100029.44;4108909;28;20628;-65
2023/04/23 06:58:14;;;;;;;4.05;2.97;;;;;;;14.27;71.67;100030.31;4123746;28;20201;-65
2023/04/23 07:00:18;;;;;;;3.17;2.43;;;;;;;14.26;72.16;100028.59;4132421;28;20046;-65
2023/04/23 07:02:21;;;;;;;4.00;2.50;;;;;;;14.20;71.44;100020.78;4132109;28;20060;-65
2023/04/23 07:04:24;;;;;;;5.60;3.08;;;;;;;14.23;71.65;100019.91;4117040;28;20078;-64
2023/04/23 07:06:27;;;;;;;4.43;2.55;;;;;;;14.24;71.54;100014.66;4131329;28;20042;-65
2023/04/23 07:08:30;;;;;;;4.18;2.50;;;;;;;14.33;71.22;100013.72;4114582;28;20039;-64
2023/04/23 07:10:33;;;;;;;3.15;2.60;;;;;;;14.49;71.21;100017.06;4115950;28;20046;-64
2023/04/23 07:12:38;;;;;;;3.67;2.42;;;;;;;14.45;71.55;100013.59;4114893;28;20102;-65
2023/04/23 07:14:41;;;;;;;3.97;2.65;;;;;;;14.43;71.75;100014.53;4129043;28;20042;-65
2023/04/23 07:16:46;;;;;;;3.65;2.63;;;;;;;14.48;70.92;100017.94;4123932;28;20073;-65
2023/04/23 07:18:49;;;;;;;4.50;2.80;;;;;;;14.45;71.70;100016.22;4131245;28;20041;-65
2023/04/23 07:20:51;;;;;;;4.88;2.90;;;;;;;14.60;71.18;100007.38;4115584;28;20062;-65
2023/04/23 07:22:54;;;;;;;6.28;2.92;;;;;;;14.68;70.45;100011.72;4114457;28;20122;-64
2023/04/23 07:24:57;;;;;;;2.50;2.08;;;;;;;14.88;70.56;100006.25;4114301;28;20101;-62
2023/04/23 07:27:00;;;;;;;4.20;2.92;;;;;;;15.03;70.94;100005.25;4111170;28;20102;-64
2023/04/23 07:29:06;;;;;;;5.97;3.15;;;;;;;15.13;69.30;99999.88;4123489;28;20054;-62
2023/04/23 07:31:09;;;;;;;2.72;2.35;;;;;;;15.12;70.36;99998.13;4111321;28;20030;-62
2023/04/23 07:33:12;;;;;;;3.35;2.67;;;;;;;15.10;69.93;100001.63;4113701;28;20066;-65
2023/04/23 07:35:15;;;;;;;2.88;2.53;;;;;;;15.06;70.05;99997.34;4115078;28;20034;-63
2023/04/23 07:37:18;;;;;;;4.65;2.40;;;;;;;15.00;69.89;99991.28;4113173;28;20101;-65
2023/04/23 07:39:21;;;;;;;4.70;2.78;;;;;;;15.03;68.75;99989.53;4114468;28;20117;-62
2023/04/23 07:41:24;;;;;;;3.45;2.60;;;;;;;14.98;69.24;99990.44;4113072;28;20035;-64
2023/04/23 07:43:27;;;;;;;4.72;2.60;;;;;;;15.04;69.93;99986.00;4113653;28;20094;-64
2023/04/23 07:45:31;;;;;;;5.68;2.53;;;;;;;15.17;68.84;99982.34;4115291;28;20038;-64
2023/04/23 07:47:34;;;;;;;2.60;2.00;;;;;;;14.96;69.48;99984.34;4129925;28;20034;-64
2023/04/23 07:49:37;;;;;;;3.38;2.38;;;;;;;14.94;69.14;99983.50;4114533;28;20042;-65
2023/04/23 07:51:40;;;;;;;2.85;2.30;;;;;;;14.89;69.02;99982.69;4112327;28;20396;-63
2023/04/23 07:53:43;;;;;;;4.03;2.25;;;;;;;14.86;69.73;99981.84;4114165;28;20507;-62
2023/04/23 07:55:46;;;;;;;3.63;2.50;;;;;;;14.90;69.11;99981.81;4117090;28;20051;-64
2023/04/23 07:57:48;;;;;;;4.80;2.38;;;;;;;14.93;69.68;99983.53;4112081;28;20326;-65
2023/04/23 07:59:51;;;;;;;3.10;2.50;;;;;;;14.98;68.84;99986.94;4111885;28;20049;-64
2023/04/23 08:01:56;;;;;;;3.42;2.08;;;;;;;14.81;67.87;99977.53;4112372;28;20038;-65
2023/04/23 08:03:59;;;;;;;5.18;2.25;;;;;;;14.84;66.80;99976.63;4114242;28;20093;-64
2023/04/23 08:06:03;;;;;;;3.47;2.03;;;;;;;15.14;66.81;99977.16;4112263;28;20046;-64
2023/04/23 08:08:06;;;;;;;6.17;2.30;;;;;;;15.33;67.09;99973.44;4110639;28;20057;-64
2023/04/23 08:10:10;;;;;;;3.40;2.20;;;;;;;15.27;67.14;99978.72;4110980;28;20294;-64
2023/04/23 08:12:12;;;;;;;3.45;2.60;;;;;;;15.42;67.18;99975.06;4101904;28;20051;-64
2023/04/23 08:14:15;;;;;;;2.70;1.95;;;;;;;15.27;66.81;99970.00;4112163;28;20055;-62
2023/04/23 08:16:18;;;;;;;4.82;2.35;;;;;;;15.33;67.28;99977.78;4123871;28;20046;-62
2023/04/23 08:18:22;;;;;;;4.70;2.40;;;;;;;15.34;66.62;99975.13;4112492;28;20042;-62
2023/04/23 08:20:27;;;;;;;3.67;2.10;;;;;;;15.38;66.26;99960.28;4105727;28;20043;-63
2023/04/23 08:22:30;;;;;;;4.55;2.33;;;;;;;15.38;66.94;99964.66;4112417;28;20440;-64
2023/04/23 08:24:33;;;;;;;4.32;2.70;;;;;;;15.49;67.86;99957.50;4129067;28;20034;-64
2023/04/23 08:26:36;;;;;;;3.13;2.35;;;;;;;15.47;66.09;99959.28;4114796;28;20043;-64
2023/04/23 08:28:39;;;;;;;4.68;2.28;;;;;;;15.42;66.24;99955.84;4113374;28;20058;-64
2023/04/23 08:30:42;;;;;;;4.25;2.45;;;;;;;15.44;64.72;99956.69;4128634;28;20043;-64
2023/04/23 08:32:48;;;;;;;5.90;2.72;;;;;;;15.79;64.36;99950.13;4112314;28;20043;-62
2023/04/23 08:34:53;;;;;;;4.75;2.85;;;;;;;15.94;63.07;99954.25;4111169;28;20034;-64
2023/04/23 08:36:55;;;;;;;3.58;2.08;;;;;;;16.21;63.02;99947.69;4113827;28;20039;-62
2023/04/23 08:38:59;;;;;;;6.40;2.60;;;;;;;16.33;61.80;99942.22;4111987;28;20110;-64
2023/04/23 08:41:06;;;;;;;3.57;1.90;;;;;;;16.37;61.03;99933.41;4112216;28;20133;-64
2023/04/23 08:43:16;;;;;;;5.30;2.65;;;;;;;16.64;61.09;99935.53;4125749;28;20775;-62
2023/04/23 08:45:19;;;;;;;3.60;2.15;;;;;;;16.68;59.79;99943.31;4113508;28;20054;-62
2023/04/23 08:47:24;;;;;;;4.50;2.35;;;;;;;16.56;58.09;99951.44;4113726;28;20089;-63
2023/04/23 08:49:34;;;;;;;5.53;2.15;;;;;;;16.56;59.00;99947.03;4109268;28;20057;-62
2023/04/23 08:51:43;;;;;;;3.25;2.17;;;;;;;16.52;58.21;99944.50;4109466;28;20492;-63
2023/04/23 08:53:51;;;;;;;4.65;2.25;;;;;;;16.62;58.41;99938.19;4104957;28;20046;-63
2023/04/23 08:55:55;;;;;;;5.25;2.45;;;;;;;16.90;57.84;99948.19;4107463;28;20051;-63
2023/04/23 08:57:58;;;;;;;4.63;2.63;;;;;;;17.10;57.52;99946.00;4111188;28;20512;-62
2023/04/23 09:00:05;;;;;;;3.37;1.93;;;;;;;17.31;57.98;99941.19;4075200;28;1050672;-63
2023/04/23 09:02:09;;;;;;;3.70;2.17;;;;;;;17.37;57.78;99934.94;4113158;28;23066;-63
2023/04/23 09:04:15;;;;;;;3.72;2.25;;;;;;;17.45;58.53;99940.91;4114832;28;20039;-63
2023/04/23 09:06:19;;;;;;;5.00;2.85;;;;;;;17.49;58.07;99936.41;4112621;28;20047;-65
2023/04/23 09:08:24;;;;;;;4.63;2.80;;;;;;;17.32;58.21;99935.03;4113714;28;20046;-63
2023/04/23 09:10:28;;;;;;;4.43;2.65;;;;;;;17.28;57.18;99941.25;4113164;28;20464;-63
2023/04/23 09:12:32;;;;;;;;;;;;;;;17.25;56.54;99936.94;4125371;28;20035;-63
2023/04/23 09:14:35;;;;;;;2.38;2.03;;;;;;;17.21;56.85;99932.63;4109367;28;19931;-63
2023/04/23 09:16:39;;;;;;;3.17;2.00;;;;;;;17.40;57.24;99929.59;4114406;28;20118;-63
2023/04/23 09:18:43;;;;;;;7.03;2.30;;;;;;;17.28;57.43;99928.97;4107689;28;20448;-63
2023/04/23 09:20:46;;;;;;;3.97;2.42;;;;;;;17.13;57.42;99920.56;4127784;28;20042;-63
2023/04/23 09:22:51;;;;;;;4.13;2.30;;;;;;;17.33;57.28;99928.00;4113430;28;20525;-63
2023/04/23 09:25:04;;;;;;;5.82;2.60;;;;;;;17.34;57.92;99922.72;4206933;27;20409;-63
2023/04/23 09:27:07;;;;;;;4.60;2.17;;;;;;;17.50;58.39;99923.25;4204441;28;20036;-63
2023/04/23 09:29:16;;;;;;;5.57;2.30;;;;;;;17.60;57.74;99922.13;4197748;28;20047;-63
2023/04/23 09:31:23;;;;;;;4.13;2.30;;;;;;;17.73;56.88;99912.19;4193071;28;20054;-63
2023/04/23 09:33:28;;;;;;;5.13;1.90;;;;;;;17.88;56.35;99910.09;4193380;28;20048;-63
2023/04/23 09:35:34;;;;;;;6.60;2.67;;;;;;;17.82;56.49;99905.84;4194768;28;20048;-63
2023/04/23 09:37:39;;;;;;;4.07;2.30;;;;;;;17.72;55.13;99913.09;4193363;28;20124;-63
2023/04/23 09:39:42;;;;;;;4.40;2.63;;;;;;;17.58;55.73;99909.91;4192064;28;20032;-63